Time;durP1;ratioP1;P1;durP2;ratioP2;P2;SDS_P1;SDS_P2;PMS_P1;PMS_P2;Temp;Humidity;BMP_temperature;BMP_pressure;BME280_temperature;BME280_humidity;BME280_pressure;Samples;Min_cycle;Max_cycle;Signal;HPM_P1;HPM_P2
2021/08/24 00:00:16;;;;;;;10.10;7.18;;;;;;;;;;5012529;28;20411;-51
2021/08/24 00:02:43;;;;;;;7.50;6.50;;;;;;;;;;5012635;28;20107;-54
2021/08/24 00:05:11;;;;;;;7.50;6.70;;;;;;;;;;5012505;28;20038;-55
2021/08/24 00:07:38;;;;;;;7.47;6.22;;;;;;;;;;5010784;28;20049;-55
2021/08/24 00:10:05;;;;;;;5.75;5.15;;;;;;;;;;5011673;28;20454;-53
2021/08/24 00:12:32;;;;;;;5.95;5.18;;;;;;;;;;5012921;28;20514;-54
2021/08/24 00:14:59;;;;;;;6.80;5.45;;;;;;;;;;5016078;28;20045;-56
2021/08/24 00:17:25;;;;;;;5.47;4.90;;;;;;;;;;5006184;28;20427;-55
2021/08/24 00:19:53;;;;;;;6.07;4.57;;;;;;;;;;5010236;28;20064;-55
2021/08/24 00:22:20;;;;;;;6.53;4.57;;;;;;;;;;5015891;28;20042;-54
2021/08/24 00:24:47;;;;;;;5.30;4.63;;;;;;;;;;5015912;28;20053;-54
2021/08/24 00:27:14;;;;;;;4.78;4.28;;;;;;;;;;5015798;28;20360;-56
2021/08/24 00:29:40;;;;;;;6.05;4.25;;;;;;;;;;5030917;28;20430;-53
2021/08/24 00:32:07;;;;;;;5.05;4.55;;;;;;;;;;5015529;28;20561;-58
2021/08/24 00:34:39;;;;;;;5.00;4.50;;;;;;;;;;5014466;28;20038;-53
2021/08/24 00:37:05;;;;;;;5.13;4.55;;;;;;;;;;5014719;28;20046;-56
2021/08/24 00:39:32;;;;;;;7.88;5.22;;;;;;;;;;5015381;28;20038;-55
2021/08/24 00:41:59;;;;;;;5.10;4.60;;;;;;;;;;5013705;28;20072;-55
2021/08/24 00:44:26;;;;;;;5.80;4.72;;;;;;;;;;5030622;28;20080;-52
2021/08/24 00:46:53;;;;;;;4.82;4.30;;;;;;;;;;5014279;28;20043;-55
2021/08/24 00:49:21;;;;;;;5.70;3.90;;;;;;;;;;5015494;28;20151;-54
2021/08/24 00:51:51;;;;;;;5.38;3.80;;;;;;;;;;5014613;28;20038;-51
2021/08/24 00:54:21;;;;;;;4.82;4.03;;;;;;;;;;5015151;28;20056;-55
2021/08/24 00:56:50;;;;;;;5.82;4.15;;;;;;;;;;5007967;28;20042;-55
2021/08/24 00:59:18;;;;;;;4.55;3.80;;;;;;;;;;4994834;28;20488;-55
2021/08/24 01:01:46;;;;;;;3.92;3.50;;;;;;;;;;5010382;28;20483;-56
2021/08/24 01:04:14;;;;;;;5.28;3.28;;;;;;;;;;5015092;28;20454;-56
2021/08/24 01:06:45;;;;;;;5.13;3.17;;;;;;;;;;5013852;28;20038;-56
2021/08/24 01:09:11;;;;;;;4.70;2.60;;;;;;;;;;5014260;28;20429;-54
2021/08/24 01:12:01;;;;;;;3.83;2.83;;;;;;;;;;5014555;28;20140;-55
2021/08/24 01:14:31;;;;;;;4.03;2.90;;;;;;;;;;5014481;28;20490;-55
2021/08/24 01:17:10;;;;;;;3.42;2.72;;;;;;;;;;5012943;28;20042;-55
2021/08/24 01:19:45;;;;;;;2.78;2.38;;;;;;;;;;5014232;28;20484;-52
2021/08/24 01:22:15;;;;;;;3.67;2.80;;;;;;;;;;5014012;28;20057;-55
2021/08/24 01:24:49;;;;;;;3.33;2.75;;;;;;;;;;5013209;28;20038;-55
2021/08/24 01:27:27;;;;;;;4.55;2.88;;;;;;;;;;5007638;28;20140;-55
2021/08/24 01:30:06;;;;;;;3.53;2.90;;;;;;;;;;5013793;28;20052;-56
2021/08/24 01:32:51;;;;;;;3.15;2.80;;;;;;;;;;5033065;28;20061;-57
2021/08/24 01:35:27;;;;;;;3.75;3.03;;;;;;;;;;5023102;28;20506;-56
2021/08/24 01:38:13;;;;;;;3.72;2.80;;;;;;;;;;5013827;28;20118;-57
2021/08/24 01:40:42;;;;;;;4.47;2.50;;;;;;;;;;5001476;28;20033;-55
2021/08/24 01:43:12;;;;;;;3.58;2.47;;;;;;;;;;5012934;28;20064;-54
2021/08/24 01:45:42;;;;;;;4.38;2.47;;;;;;;;;;5012786;28;20045;-57
2021/08/24 01:48:12;;;;;;;3.25;2.45;;;;;;;;;;5012633;28;20038;-55
2021/08/24 01:50:42;;;;;;;3.33;2.70;;;;;;;;;;5013314;28;20068;-57
2021/08/24 01:53:24;;;;;;;3.33;2.42;;;;;;;;;;5013232;28;20141;-55
2021/08/24 01:56:01;;;;;;;3.53;2.30;;;;;;;;;;5012677;28;20115;-57
2021/08/24 01:58:31;;;;;;;5.45;2.42;;;;;;;;;;5001762;28;20034;-53
2021/08/24 02:01:01;;;;;;;3.08;2.28;;;;;;;;;;5011467;28;20141;-54
2021/08/24 02:03:32;;;;;;;3.38;2.28;;;;;;;;;;5013551;28;20157;-53
2021/08/24 02:06:01;;;;;;;3.15;2.40;;;;;;;;;;5012719;28;20488;-54
2021/08/24 02:08:30;;;;;;;5.55;2.45;;;;;;;;;;5001011;28;20046;-54
2021/08/24 02:11:01;;;;;;;4.93;2.50;;;;;;;;;;5012851;28;20379;-55
2021/08/24 02:13:31;;;;;;;5.90;2.70;;;;;;;;;;5012451;28;20042;-56
2021/08/24 02:15:59;;;;;;;3.70;2.40;;;;;;;;;;5012595;28;20046;-57
2021/08/24 02:18:31;;;;;;;3.88;2.60;;;;;;;;;;5012120;28;20041;-58
2021/08/24 02:21:03;;;;;;;3.90;2.90;;;;;;;;;;5013466;28;20049;-59
2021/08/24 02:23:31;;;;;;;4.38;2.78;;;;;;;;;;5013284;28;20050;-59
2021/08/24 02:26:00;;;;;;;4.00;2.45;;;;;;;;;;5012264;28;20041;-58
2021/08/24 02:28:31;;;;;;;7.00;2.70;;;;;;;;;;5011943;28;20073;-58
2021/08/24 02:31:18;;;;;;;5.35;3.00;;;;;;;;;;5012767;28;20057;-59
2021/08/24 02:33:53;;;;;;;3.10;2.33;;;;;;;;;;5011721;28;20053;-54
2021/08/24 02:36:20;;;;;;;3.67;2.72;;;;;;;;;;5011612;28;20060;-54
2021/08/24 02:38:59;;;;;;;3.60;2.60;;;;;;;;;;5012416;28;20038;-54
2021/08/24 02:41:33;;;;;;;4.65;2.63;;;;;;;;;;5013493;28;20042;-55
2021/08/24 02:44:09;;;;;;;6.38;3.05;;;;;;;;;;5026892;28;20046;-58
2021/08/24 02:46:38;;;;;;;3.75;2.45;;;;;;;;;;5013000;28;20423;-57
2021/08/24 02:49:09;;;;;;;4.32;2.85;;;;;;;;;;5011635;28;20042;-58
2021/08/24 02:51:36;;;;;;;3.97;2.42;;;;;;;;;;5012878;28;20050;-57
2021/08/24 02:54:15;;;;;;;4.03;2.28;;;;;;;;;;5012457;28;20583;-56
2021/08/24 02:56:42;;;;;;;3.72;2.58;;;;;;;;;;5011548;28;20034;-55
2021/08/24 02:59:08;;;;;;;3.70;2.30;;;;;;;;;;5012297;28;20050;-56
2021/08/24 03:01:35;;;;;;;3.92;2.63;;;;;;;;;;5012341;28;20559;-56
2021/08/24 03:04:04;;;;;;;3.60;2.45;;;;;;;;;;5012289;28;20045;-57
2021/08/24 03:06:32;;;;;;;4.30;2.67;;;;;;;;;;5010908;28;20046;-57
2021/08/24 03:09:00;;;;;;;3.30;2.28;;;;;;;;;;5011439;28;20037;-55
2021/08/24 03:11:30;;;;;;;5.00;2.50;;;;;;;;;;5012353;28;20129;-54
2021/08/24 03:14:04;;;;;;;6.95;2.65;;;;;;;;;;5011604;28;20431;-55
2021/08/24 03:16:36;;;;;;;5.15;2.63;;;;;;;;;;5012113;28;20129;-53
2021/08/24 03:19:10;;;;;;;6.32;2.92;;;;;;;;;;5011484;28;20038;-51
2021/08/24 03:21:38;;;;;;;4.03;2.58;;;;;;;;;;5012053;28;20052;-54
2021/08/24 03:24:09;;;;;;;4.40;2.75;;;;;;;;;;5011666;28;20045;-55
2021/08/24 03:26:38;;;;;;;4.93;2.65;;;;;;;;;;5011716;28;20050;-54
2021/08/24 03:29:09;;;;;;;3.75;2.55;;;;;;;;;;5011723;28;20053;-57
2021/08/24 03:31:36;;;;;;;4.95;2.58;;;;;;;;;;5012150;28;20049;-58
2021/08/24 03:34:03;;;;;;;5.13;2.80;;;;;;;;;;5011693;28;20048;-58
2021/08/24 03:36:30;;;;;;;5.65;2.78;;;;;;;;;;5011170;28;20688;-56
2021/08/24 03:38:57;;;;;;;4.05;2.70;;;;;;;;;;5011798;28;20152;-58
2021/08/24 03:41:24;;;;;;;4.05;2.45;;;;;;;;;;5011452;28;20046;-58
2021/08/24 03:43:51;;;;;;;4.55;2.60;;;;;;;;;;5011456;28;20594;-57
2021/08/24 03:46:17;;;;;;;5.40;2.95;;;;;;;;;;5011167;28;20057;-57
2021/08/24 03:48:44;;;;;;;5.35;2.72;;;;;;;;;;5010266;28;20050;-56
2021/08/24 03:51:11;;;;;;;4.93;2.80;;;;;;;;;;5011715;28;20533;-58
2021/08/24 03:53:38;;;;;;;6.25;2.80;;;;;;;;;;5011561;28;20042;-58
2021/08/24 03:56:05;;;;;;;4.25;2.80;;;;;;;;;;5010040;28;20507;-56
2021/08/24 03:58:33;;;;;;;4.68;2.80;;;;;;;;;;5010264;28;20034;-57
2021/08/24 04:01:00;;;;;;;4.70;2.85;;;;;;;;;;5011722;28;20065;-58
2021/08/24 04:03:27;;;;;;;4.43;2.83;;;;;;;;;;5013875;22;20074;-52
2021/08/24 04:06:01;;;;;;;5.22;3.05;;;;;;;;;;5006843;28;20042;-49
2021/08/24 04:08:28;;;;;;;5.90;3.20;;;;;;;;;;5023653;28;20042;-55
2021/08/24 04:10:56;;;;;;;5.78;2.97;;;;;;;;;;5021584;28;20048;-50
2021/08/24 04:13:22;;;;;;;5.68;4.07;;;;;;;;;;5007010;28;20049;-51
2021/08/24 04:15:49;;;;;;;5.60;3.40;;;;;;;;;;4998253;28;20121;-50
2021/08/24 04:18:16;;;;;;;6.50;3.30;;;;;;;;;;4999195;28;20042;-53
2021/08/24 04:20:43;;;;;;;5.00;3.40;;;;;;;;;;5011874;28;20042;-53
2021/08/24 04:23:14;;;;;;;7.53;3.50;;;;;;;;;;5010060;28;20079;-48
2021/08/24 04:25:41;;;;;;;9.38;3.45;;;;;;;;;;4995058;28;20085;-51
2021/08/24 04:28:08;;;;;;;5.72;3.45;;;;;;;;;;5002986;28;20084;-49
2021/08/24 04:30:36;;;;;;;8.40;3.90;;;;;;;;;;5006425;28;20046;-53
2021/08/24 04:33:04;;;;;;;6.28;3.78;;;;;;;;;;4995766;28;20567;-49
2021/08/24 04:35:31;;;;;;;6.50;3.72;;;;;;;;;;4971942;28;20042;-53
2021/08/24 04:37:58;;;;;;;5.82;3.83;;;;;;;;;;4982298;28;20042;-48
2021/08/24 04:40:29;;;;;;;6.72;3.72;;;;;;;;;;4972668;28;20047;-53
2021/08/24 04:42:56;;;;;;;5.85;3.65;;;;;;;;;;4989233;28;20125;-53
2021/08/24 04:45:23;;;;;;;7.22;4.00;;;;;;;;;;4996091;28;20030;-52
2021/08/24 04:47:49;;;;;;;9.50;4.70;;;;;;;;;;4983980;28;20050;-53
2021/08/24 04:50:16;;;;;;;6.85;4.25;;;;;;;;;;4991859;28;20042;-53
2021/08/24 04:52:43;;;;;;;7.07;4.45;;;;;;;;;;4997634;28;20045;-48
2021/08/24 04:55:10;;;;;;;6.28;3.90;;;;;;;;;;5010702;28;20454;-52
2021/08/24 04:57:37;;;;;;;6.90;4.18;;;;;;;;;;5009873;28;20045;-50
2021/08/24 05:00:04;;;;;;;6.97;4.57;;;;;;;;;;5004210;28;20039;-53
2021/08/24 05:02:31;;;;;;;7.18;4.50;;;;;;;;;;4990307;28;20066;-52
2021/08/24 05:04:58;;;;;;;7.35;3.83;;;;;;;;;;4998476;28;20537;-49
2021/08/24 05:07:25;;;;;;;6.20;4.55;;;;;;;;;;5015495;28;20052;-50
2021/08/24 05:09:52;;;;;;;6.43;3.88;;;;;;;;;;4983486;28;20042;-53
2021/08/24 05:12:18;;;;;;;6.40;3.97;;;;;;;;;;5010120;28;20046;-48
2021/08/24 05:14:45;;;;;;;19.88;5.38;;;;;;;;;;5003481;28;20448;-52
2021/08/24 05:17:12;;;;;;;7.30;4.00;;;;;;;;;;4997424;28;20052;-49
2021/08/24 05:19:39;;;;;;;9.00;4.90;;;;;;;;;;4979617;28;20042;-51
2021/08/24 05:22:05;;;;;;;6.30;4.13;;;;;;;;;;5004178;28;20041;-51
2021/08/24 05:24:36;;;;;;;6.65;4.57;;;;;;;;;;4994583;28;20419;-50
2021/08/24 05:27:03;;;;;;;9.18;4.72;;;;;;;;;;4995857;28;20047;-54
2021/08/24 05:29:30;;;;;;;5.90;3.88;;;;;;;;;;5011012;28;20048;-48
2021/08/24 05:31:57;;;;;;;6.57;4.38;;;;;;;;;;5006571;28;20042;-51
2021/08/24 05:34:24;;;;;;;7.38;4.57;;;;;;;;;;4991987;28;20073;-52
2021/08/24 05:36:50;;;;;;;7.60;4.30;;;;;;;;;;4996926;28;20048;-49
2021/08/24 05:39:21;;;;;;;6.53;4.38;;;;;;;;;;5000385;28;20034;-50
2021/08/24 05:41:47;;;;;;;8.02;5.05;;;;;;;;;;5010127;28;20046;-51
2021/08/24 05:44:14;;;;;;;6.60;5.07;;;;;;;;;;4994717;28;20050;-48
2021/08/24 05:46:41;;;;;;;8.40;5.07;;;;;;;;;;5009712;28;20042;-51
2021/08/24 05:49:09;;;;;;;7.65;5.43;;;;;;;;;;4995436;28;20130;-50
2021/08/24 05:51:36;;;;;;;7.30;5.30;;;;;;;;;;4993975;28;20046;-51
2021/08/24 05:54:04;;;;;;;12.40;5.57;;;;;;;;;;4993698;28;20503;-53
2021/08/24 05:56:31;;;;;;;7.03;4.80;;;;;;;;;;5008065;28;20043;-49
2021/08/24 05:58:58;;;;;;;8.60;5.45;;;;;;;;;;4996794;28;20042;-51
2021/08/24 06:01:26;;;;;;;7.80;5.07;;;;;;;;;;4999138;28;20046;-49
2021/08/24 06:03:54;;;;;;;8.60;5.32;;;;;;;;;;5000159;28;20041;-49
2021/08/24 06:06:22;;;;;;;8.15;5.97;;;;;;;;;;5000795;28;20054;-51
2021/08/24 06:08:49;;;;;;;8.60;6.45;;;;;;;;;;5002684;28;20053;-48
2021/08/24 06:11:20;;;;;;;8.38;6.30;;;;;;;;;;4995029;28;20085;-49
2021/08/24 06:13:48;;;;;;;8.40;6.78;;;;;;;;;;5000526;28;20049;-52
2021/08/24 06:16:16;;;;;;;8.10;6.13;;;;;;;;;;4989342;28;20046;-49
2021/08/24 06:18:43;;;;;;;8.77;6.78;;;;;;;;;;4997597;28;20423;-53
2021/08/24 06:21:10;;;;;;;8.65;6.78;;;;;;;;;;4994542;28;20050;-50
2021/08/24 06:23:37;;;;;;;8.38;7.00;;;;;;;;;;4996556;28;20038;-52
2021/08/24 06:26:05;;;;;;;9.80;6.97;;;;;;;;;;4993044;28;20040;-52
2021/08/24 06:28:32;;;;;;;11.90;7.30;;;;;;;;;;4993252;28;20365;-48
2021/08/24 06:30:59;;;;;;;10.68;7.18;;;;;;;;;;4991478;28;20034;-44
2021/08/24 06:33:28;;;;;;;9.10;6.28;;;;;;;;;;4993165;28;20053;-49
2021/08/24 06:35:55;;;;;;;9.25;6.63;;;;;;;;;;4990233;28;20492;-48
2021/08/24 06:38:22;;;;;;;8.82;7.32;;;;;;;;;;4989368;28;20117;-50
2021/08/24 06:40:48;;;;;;;12.55;7.50;;;;;;;;;;4990423;28;20053;-47
2021/08/24 06:43:16;;;;;;;9.45;7.25;;;;;;;;;;4989770;28;20129;-49
2021/08/24 06:45:43;;;;;;;9.48;7.25;;;;;;;;;;4994294;28;20049;-46
2021/08/24 06:48:09;;;;;;;9.23;7.25;;;;;;;;;;4988699;28;20511;-50
2021/08/24 06:50:37;;;;;;;11.05;6.70;;;;;;;;;;4989527;28;20038;-55
2021/08/24 06:53:03;;;;;;;10.98;7.57;;;;;;;;;;4994639;28;20046;-48
2021/08/24 06:55:31;;;;;;;9.68;7.53;;;;;;;;;;4978653;28;20054;-53
2021/08/24 06:57:59;;;;;;;13.18;7.63;;;;;;;;;;4986552;28;20034;-50
2021/08/24 07:00:26;;;;;;;10.85;7.30;;;;;;;;;;4991119;28;20454;-49
2021/08/24 07:02:54;;;;;;;11.10;8.68;;;;;;;;;;4981614;28;20444;-54
2021/08/24 07:05:24;;;;;;;10.55;7.95;;;;;;;;;;4975715;28;20100;-52
2021/08/24 07:07:50;;;;;;;8.75;6.35;;;;;;;;;;4987355;28;20176;-52
2021/08/24 07:10:18;;;;;;;9.00;6.45;;;;;;;;;;4988080;28;20077;-49
2021/08/24 07:12:45;;;;;;;8.38;6.40;;;;;;;;;;4992173;28;20050;-52
2021/08/24 07:15:14;;;;;;;7.72;6.00;;;;;;;;;;4995272;28;20125;-49
2021/08/24 07:17:41;;;;;;;8.25;6.30;;;;;;;;;;5012927;28;20069;-54
2021/08/24 07:20:10;;;;;;;8.90;6.57;;;;;;;;;;4975611;28;20046;-52
2021/08/24 07:22:37;;;;;;;8.60;6.63;;;;;;;;;;4973641;28;20191;-51
2021/08/24 07:25:05;;;;;;;8.00;6.45;;;;;;;;;;4973296;28;20055;-50
2021/08/24 07:27:32;;;;;;;10.93;6.10;;;;;;;;;;4973479;28;20070;-49
2021/08/24 07:29:58;;;;;;;8.45;6.30;;;;;;;;;;4973646;28;20475;-50
2021/08/24 07:32:25;;;;;;;9.75;6.53;;;;;;;;;;4973607;28;20049;-51
2021/08/24 07:34:52;;;;;;;9.73;6.70;;;;;;;;;;4973068;28;20075;-51
2021/08/24 07:37:19;;;;;;;7.97;6.28;;;;;;;;;;4973137;28;20054;-50
2021/08/24 07:39:49;;;;;;;8.88;6.28;;;;;;;;;;4973442;28;20587;-48
2021/08/24 07:42:15;;;;;;;8.48;6.15;;;;;;;;;;4971957;28;20122;-53
2021/08/24 07:44:42;;;;;;;9.68;6.80;;;;;;;;;;4973179;28;20043;-51
2021/08/24 07:47:10;;;;;;;8.15;6.60;;;;;;;;;;4973299;28;20133;-48
2021/08/24 07:49:38;;;;;;;8.10;6.28;;;;;;;;;;4973228;28;20127;-53
2021/08/24 07:52:06;;;;;;;8.40;6.68;;;;;;;;;;4973337;28;20415;-49
2021/08/24 07:54:33;;;;;;;8.60;7.10;;;;;;;;;;4972957;28;20480;-50
2021/08/24 07:57:00;;;;;;;10.02;8.10;;;;;;;;;;4972958;28;20415;-50
2021/08/24 07:59:26;;;;;;;8.48;6.97;;;;;;;;;;4973199;28;20126;-53
2021/08/24 08:01:54;;;;;;;7.90;7.05;;;;;;;;;;4972747;28;20137;-47
2021/08/24 08:04:23;;;;;;;8.85;7.35;;;;;;;;;;4972436;28;20070;-51
2021/08/24 08:06:49;;;;;;;9.88;7.82;;;;;;;;;;4972979;28;20133;-48
2021/08/24 08:09:16;;;;;;;11.18;8.43;;;;;;;;;;4972683;28;20566;-48
2021/08/24 08:11:43;;;;;;;9.52;7.82;;;;;;;;;;4972913;28;20042;-49
2021/08/24 08:14:12;;;;;;;11.52;8.57;;;;;;;;;;4972965;28;20050;-51
2021/08/24 08:16:39;;;;;;;10.32;8.88;;;;;;;;;;4972854;28;20042;-50
2021/08/24 08:19:10;;;;;;;11.70;8.40;;;;;;;;;;4972618;28;20035;-52
2021/08/24 08:21:39;;;;;;;11.30;8.48;;;;;;;;;;4972914;28;20050;-49
2021/08/24 08:24:06;;;;;;;10.77;8.60;;;;;;;;;;4987335;28;20053;-49
2021/08/24 08:26:33;;;;;;;9.90;8.68;;;;;;;;;;4972914;28;20470;-54
2021/08/24 08:29:03;;;;;;;10.65;8.88;;;;;;;;;;4989851;28;20046;-53
2021/08/24 08:31:31;;;;;;;8.25;7.38;;;;;;;;;;4992050;28;20050;-53
2021/08/24 08:33:58;;;;;;;8.18;7.38;;;;;;;;;;4993536;28;20500;-48
2021/08/24 08:36:26;;;;;;;9.98;6.88;;;;;;;;;;4987249;28;20051;-51
2021/08/24 08:38:52;;;;;;;9.48;7.22;;;;;;;;;;4976462;28;20403;-53
2021/08/24 08:41:30;;;;;;;8.23;7.20;;;;;;;;;;4976557;28;20215;-50
2021/08/24 08:44:02;;;;;;;9.02;7.35;;;;;;;;;;4976499;28;20039;-50
2021/08/24 08:46:28;;;;;;;9.75;7.80;;;;;;;;;;4975968;28;20470;-49
2021/08/24 08:49:04;;;;;;;11.80;8.13;;;;;;;;;;4976458;28;20408;-48
2021/08/24 08:51:51;;;;;;;10.13;8.32;;;;;;;;;;4975302;28;20066;-51
2021/08/24 08:54:32;;;;;;;11.43;9.07;;;;;;;;;;4976008;28;20074;-53
2021/08/24 08:57:05;;;;;;;12.70;8.95;;;;;;;;;;4976229;28;20456;-51
2021/08/24 08:59:43;;;;;;;12.00;9.07;;;;;;;;;;4991168;28;20112;-49
2021/08/24 09:02:30;;;;;;;10.98;8.60;;;;;;;;;;4976321;28;20157;-53
2021/08/24 09:04:59;;;;;;;10.75;8.45;;;;;;;;;;4975856;28;20101;-55
2021/08/24 09:07:42;;;;;;;11.18;8.13;;;;;;;;;;4976056;28;20047;-49
2021/08/24 09:10:22;;;;;;;14.13;8.80;;;;;;;;;;4976036;28;20082;-49
2021/08/24 09:13:09;;;;;;;9.80;7.90;;;;;;;;;;4976083;28;20047;-51
2021/08/24 09:15:47;;;;;;;9.98;7.78;;;;;;;;;;4971653;28;20050;-50
2021/08/24 09:18:17;;;;;;;9.90;8.02;;;;;;;;;;4975670;28;20039;-53
2021/08/24 09:20:55;;;;;;;10.07;8.13;;;;;;;;;;4975955;28;20039;-49
2021/08/24 09:23:22;;;;;;;9.20;7.38;;;;;;;;;;4975723;28;20035;-49
2021/08/24 09:26:13;;;;;;;9.50;7.80;;;;;;;;;;4989152;28;20049;-49
2021/08/24 09:28:40;;;;;;;10.15;7.70;;;;;;;;;;4975707;28;20054;-54
2021/08/24 09:31:12;;;;;;;9.15;7.50;;;;;;;;;;4975666;28;20057;-50
2021/08/24 09:33:38;;;;;;;8.93;7.47;;;;;;;;;;4975851;28;20053;-53
2021/08/24 09:36:05;;;;;;;9.30;7.78;;;;;;;;;;4975133;28;20054;-50
2021/08/24 09:38:44;;;;;;;8.20;6.95;;;;;;;;;;4975667;28;20408;-51
2021/08/24 09:41:24;;;;;;;10.60;7.05;;;;;;;;;;4975714;28;20062;-49
2021/08/24 09:43:53;;;;;;;9.95;7.18;;;;;;;;;;4975563;28;20071;-49
2021/08/24 09:46:20;;;;;;;9.88;7.03;;;;;;;;;;4973968;28;20142;-53
2021/08/24 09:48:58;;;;;;;10.27;7.45;;;;;;;;;;4975094;28;20043;-50
2021/08/24 09:51:43;;;;;;;6.80;5.85;;;;;;;;;;4975270;28;20105;-51
2021/08/24 09:54:15;;;;;;;9.02;5.80;;;;;;;;;;4973754;28;20074;-49
2021/08/24 09:56:48;;;;;;;7.63;5.80;;;;;;;;;;4975132;28;20039;-51
2021/08/24 09:59:21;;;;;;;9.95;5.53;;;;;;;;;;4974318;28;20050;-54
2021/08/24 10:01:50;;;;;;;5.53;4.80;;;;;;;;;;4974951;28;20480;-51
2021/08/24 10:04:17;;;;;;;5.10;4.25;;;;;;;;;;5045768;23;20049;-54
2021/08/24 10:07:04;;;;;;;5.78;4.20;;;;;;;;;;4996405;28;20042;-51
2021/08/24 10:09:36;;;;;;;6.25;4.07;;;;;;;;;;5019967;28;20492;-52
2021/08/24 10:12:22;;;;;;;8.77;5.43;;;;;;;;;;5013627;28;20125;-57
2021/08/24 10:14:50;;;;;;;5.90;4.80;;;;;;;;;;4993234;28;20491;-53
2021/08/24 10:17:23;;;;;;;7.30;5.03;;;;;;;;;;4994112;28;20042;-59
2021/08/24 10:19:50;;;;;;;6.03;4.80;;;;;;;;;;4993771;28;20361;-56
2021/08/24 10:22:31;;;;;;;5.88;5.10;;;;;;;;;;4992881;28;20113;-54
2021/08/24 10:25:06;;;;;;;5.10;4.30;;;;;;;;;;5008471;28;20077;-57
2021/08/24 10:27:39;;;;;;;8.50;5.10;;;;;;;;;;4993879;28;20050;-54
2021/08/24 10:30:07;;;;;;;8.50;5.63;;;;;;;;;;4992303;28;20518;-58
2021/08/24 10:32:37;;;;;;;5.68;4.78;;;;;;;;;;4993503;28;20085;-54
2021/08/24 10:35:10;;;;;;;5.40;4.78;;;;;;;;;;4991318;28;20035;-53
2021/08/24 10:37:39;;;;;;;7.05;5.00;;;;;;;;;;4993451;28;20512;-57
2021/08/24 10:40:09;;;;;;;5.07;4.20;;;;;;;;;;4993266;28;20046;-57
2021/08/24 10:42:40;;;;;;;5.13;3.88;;;;;;;;;;4993441;28;20484;-54
2021/08/24 10:45:25;;;;;;;4.88;4.10;;;;;;;;;;4993229;28;20050;-55
2021/08/24 10:47:53;;;;;;;6.93;5.15;;;;;;;;;;4992857;28;20125;-54
2021/08/24 10:50:21;;;;;;;7.32;4.63;;;;;;;;;;4993292;28;20129;-54
2021/08/24 10:53:09;;;;;;;5.65;4.82;;;;;;;;;;4993235;28;20050;-59
2021/08/24 10:55:42;;;;;;;7.85;4.85;;;;;;;;;;4992584;28;20062;-53
2021/08/24 10:58:09;;;;;;;;;;;;;;;;;;4993467;28;20146;-57
2021/08/24 11:00:51;;;;;;;5.75;4.25;;;;;;;;;;4991848;28;19979;-57
2021/08/24 11:03:22;;;;;;;6.97;4.60;;;;;;;;;;4993348;28;20043;-54
2021/08/24 11:06:00;;;;;;;5.05;4.13;;;;;;;;;;4992550;28;20578;-54
2021/08/24 11:08:36;;;;;;;5.40;3.78;;;;;;;;;;4992794;28;20046;-54
2021/08/24 11:11:23;;;;;;;4.70;4.03;;;;;;;;;;4992856;28;20050;-51
2021/08/24 11:14:05;;;;;;;4.85;3.60;;;;;;;;;;4991546;28;20089;-54
2021/08/24 11:16:50;;;;;;;4.78;3.92;;;;;;;;;;4992692;28;20041;-53
2021/08/24 11:19:28;;;;;;;4.30;3.47;;;;;;;;;;4992858;28;20042;-55
2021/08/24 11:22:24;;;;;;;6.50;3.42;;;;;;;;;;4992793;28;20504;-54
2021/08/24 11:25:01;;;;;;;4.07;3.10;;;;;;;;;;5006937;28;20125;-51
2021/08/24 11:27:46;;;;;;;9.60;6.70;;;;;;;;;;4992681;28;20138;-56
2021/08/24 11:30:33;;;;;;;6.45;4.65;;;;;;;;;;4992549;28;20048;-54
2021/08/24 11:33:03;;;;;;;4.57;3.45;;;;;;;;;;4994788;28;20046;-54
2021/08/24 11:35:50;;;;;;;4.28;3.55;;;;;;;;;;4991730;28;20048;-53
2021/08/24 11:38:22;;;;;;;6.07;4.43;;;;;;;;;;4992721;28;20100;-53
2021/08/24 11:41:00;;;;;;;4.38;3.30;;;;;;;;;;4975182;28;20054;-55
2021/08/24 11:43:27;;;;;;;14.70;10.68;;;;;;;;;;4992475;28;20499;-51
2021/08/24 11:45:54;;;;;;;7.03;4.88;;;;;;;;;;4991742;28;20056;-58
2021/08/24 11:48:25;;;;;;;6.15;4.20;;;;;;;;;;5010072;28;20044;-57
2021/08/24 11:51:11;;;;;;;7.97;6.55;;;;;;;;;;5011614;28;20418;-58
2021/08/24 11:53:43;;;;;;;4.88;3.80;;;;;;;;;;5011621;28;20503;-57
2021/08/24 11:56:16;;;;;;;4.88;3.97;;;;;;;;;;5007339;28;20035;-57
2021/08/24 11:58:45;;;;;;;6.43;5.22;;;;;;;;;;4992746;28;20038;-58
2021/08/24 12:01:17;;;;;;;4.97;3.60;;;;;;;;;;4992151;28;20058;-58
2021/08/24 12:03:49;;;;;;;4.47;3.28;;;;;;;;;;4991922;28;20038;-58
2021/08/24 12:06:34;;;;;;;4.57;3.65;;;;;;;;;;4991390;28;20054;-58
2021/08/24 12:09:01;;;;;;;4.72;3.65;;;;;;;;;;4991350;28;20046;-58
2021/08/24 12:11:43;;;;;;;5.60;3.40;;;;;;;;;;4992042;28;20038;-58
2021/08/24 12:14:30;;;;;;;5.07;3.45;;;;;;;;;;4991225;28;20571;-57
2021/08/24 12:17:05;;;;;;;4.90;3.83;;;;;;;;;;4992188;28;20081;-58
2021/08/24 12:19:32;;;;;;;10.63;7.78;;;;;;;;;;5010081;28;20395;-58
2021/08/24 12:22:02;;;;;;;6.43;4.28;;;;;;;;;;5012012;28;20128;-57
2021/08/24 12:24:30;;;;;;;4.60;3.40;;;;;;;;;;5010768;28;20128;-58
2021/08/24 12:26:57;;;;;;;5.57;3.88;;;;;;;;;;5009364;28;20050;-57
2021/08/24 12:29:36;;;;;;;4.88;3.35;;;;;;;;;;4991955;28;20042;-58
2021/08/24 12:32:05;;;;;;;4.05;3.05;;;;;;;;;;4990709;28;20060;-58
2021/08/24 12:34:34;;;;;;;4.68;2.83;;;;;;;;;;4989729;28;20679;-58
2021/08/24 12:37:06;;;;;;;4.30;3.00;;;;;;;;;;4991684;28;20419;-53
2021/08/24 12:39:38;;;;;;;4.28;2.75;;;;;;;;;;4991521;28;20157;-55
2021/08/24 12:42:07;;;;;;;8.38;3.88;;;;;;;;;;4991791;28;20050;-58
2021/08/24 12:44:46;;;;;;;4.68;3.65;;;;;;;;;;4991426;28;20463;-58
2021/08/24 12:47:21;;;;;;;5.57;2.70;;;;;;;;;;4991235;28;20072;-58
2021/08/24 12:49:48;;;;;;;5.97;2.85;;;;;;;;;;4991541;28;20081;-57
2021/08/24 12:52:15;;;;;;;4.95;3.00;;;;;;;;;;4991481;28;20560;-57
2021/08/24 12:54:44;;;;;;;3.25;2.70;;;;;;;;;;4991060;28;20046;-58
2021/08/24 12:57:23;;;;;;;3.67;2.95;;;;;;;;;;5006444;28;20113;-57
2021/08/24 12:59:52;;;;;;;2.90;2.30;;;;;;;;;;4991578;28;20129;-58
2021/08/24 13:02:31;;;;;;;3.38;2.50;;;;;;;;;;5006223;28;20233;-57
2021/08/24 13:04:58;;;;;;;3.13;2.33;;;;;;;;;;4990811;28;20053;-58
2021/08/24 13:07:45;;;;;;;3.75;2.15;;;;;;;;;;4991748;28;20145;-58
2021/08/24 13:10:17;;;;;;;4.50;3.13;;;;;;;;;;4991671;28;20049;-58
2021/08/24 13:12:45;;;;;;;4.45;2.80;;;;;;;;;;4991276;28;20512;-57
2021/08/24 13:15:40;;;;;;;7.20;2.72;;;;;;;;;;4990568;28;20469;-57
2021/08/24 13:18:12;;;;;;;2.40;2.03;;;;;;;;;;4991484;28;20039;-58
2021/08/24 13:20:40;;;;;;;5.47;3.13;;;;;;;;;;4993992;28;20053;-58
2021/08/24 13:23:21;;;;;;;3.25;2.00;;;;;;;;;;4995022;28;20042;-58
2021/08/24 13:25:53;;;;;;;3.03;2.00;;;;;;;;;;4994400;28;20056;-58
2021/08/24 13:28:23;;;;;;;3.90;2.10;;;;;;;;;;4994874;28;20046;-57
2021/08/24 13:30:56;;;;;;;4.05;2.58;;;;;;;;;;4994956;28;20054;-58
2021/08/24 13:33:25;;;;;;;4.45;1.75;;;;;;;;;;4994594;28;20114;-57
2021/08/24 13:35:58;;;;;;;2.92;1.92;;;;;;;;;;4993875;28;20057;-58
2021/08/24 13:38:29;;;;;;;2.97;2.00;;;;;;;;;;4995011;28;20052;-57
2021/08/24 13:41:05;;;;;;;5.07;3.00;;;;;;;;;;4994922;28;20035;-57
2021/08/24 13:43:32;;;;;;;2.88;1.83;;;;;;;;;;4994649;28;20047;-58
2021/08/24 13:46:02;;;;;;;2.72;1.90;;;;;;;;;;4994018;28;20411;-56
2021/08/24 13:48:30;;;;;;;5.43;3.10;;;;;;;;;;4995178;28;20042;-57
2021/08/24 13:51:01;;;;;;;4.30;2.03;;;;;;;;;;4995135;28;20510;-58
2021/08/24 13:53:30;;;;;;;3.83;2.63;;;;;;;;;;4994647;28;20066;-58
2021/08/24 13:55:58;;;;;;;2.58;1.75;;;;;;;;;;4993821;28;20046;-58
2021/08/24 13:58:25;;;;;;;2.22;1.80;;;;;;;;;;4994325;28;20084;-57
2021/08/24 14:01:12;;;;;;;3.90;2.00;;;;;;;;;;4994353;28;20050;-58
2021/08/24 14:03:41;;;;;;;3.60;2.10;;;;;;;;;;4996897;28;20053;-58
2021/08/24 14:06:08;;;;;;;3.50;2.42;;;;;;;;;;4993774;28;20074;-58
2021/08/24 14:08:37;;;;;;;3.22;2.40;;;;;;;;;;4994084;28;20106;-58
2021/08/24 14:11:04;;;;;;;2.78;2.08;;;;;;;;;;4994547;28;20046;-57
2021/08/24 14:13:38;;;;;;;3.10;2.20;;;;;;;;;;4993947;28;20046;-58
2021/08/24 14:16:05;;;;;;;6.07;3.10;;;;;;;;;;4993365;28;20049;-57
2021/08/24 14:18:33;;;;;;;4.78;3.35;;;;;;;;;;4993830;28;20042;-53
2021/08/24 14:21:03;;;;;;;3.58;2.65;;;;;;;;;;4993909;28;20046;-58
2021/08/24 14:23:36;;;;;;;6.63;3.05;;;;;;;;;;4993828;28;20431;-56
2021/08/24 14:26:04;;;;;;;4.50;3.38;;;;;;;;;;4993410;28;20415;-56
2021/08/24 14:28:33;;;;;;;5.20;2.70;;;;;;;;;;4992524;28;20488;-57
2021/08/24 14:31:01;;;;;;;3.55;2.40;;;;;;;;;;4993113;28;20401;-57
2021/08/24 14:33:28;;;;;;;4.93;3.00;;;;;;;;;;4993714;28;20052;-58
2021/08/24 14:35:57;;;;;;;4.20;3.25;;;;;;;;;;4992883;28;20109;-58
2021/08/24 14:38:29;;;;;;;3.20;2.45;;;;;;;;;;4994025;28;20048;-58
2021/08/24 14:41:16;;;;;;;4.53;2.90;;;;;;;;;;4993642;28;20042;-57
2021/08/24 14:43:48;;;;;;;5.30;3.47;;;;;;;;;;4993189;28;20587;-57
2021/08/24 14:46:41;;;;;;;4.00;3.47;;;;;;;;;;4992902;28;20411;-57
2021/08/24 14:49:28;;;;;;;5.45;3.60;;;;;;;;;;4993985;28;20049;-57
2021/08/24 14:51:55;;;;;;;3.97;3.20;;;;;;;;;;4993426;28;20042;-57
2021/08/24 14:54:28;;;;;;;6.22;3.67;;;;;;;;;;4992660;28;20081;-57
2021/08/24 14:56:55;;;;;;;7.45;3.47;;;;;;;;;;4993530;28;20038;-58
2021/08/24 14:59:22;;;;;;;4.75;3.63;;;;;;;;;;5008526;28;20551;-57
2021/08/24 15:02:07;;;;;;;4.72;3.50;;;;;;;;;;4993067;28;20407;-57
2021/08/24 15:04:35;;;;;;;8.15;3.63;;;;;;;;;;4992605;28;20092;-58